Time;durP1;ratioP1;P1;durP2;ratioP2;P2;SDS_P1;SDS_P2;PMS_P1;PMS_P2;Temp;Humidity;BMP_temperature;BMP_pressure;BME280_temperature;BME280_humidity;BME280_pressure;Samples;Min_cycle;Max_cycle;Signal;HPM_P1;HPM_P2
2022/03/03 00:00:30;;;;;;;;;4.20;3.80;;;;;0.65;56.90;100351.22;5116692;28;8964;-63
2022/03/03 00:02:57;;;;;;;;;5.20;4.40;;;;;0.67;56.74;100344.16;5102934;28;8826;-63
2022/03/03 00:05:25;;;;;;;;;9.00;9.00;;;;;0.70;56.66;100350.16;5115526;28;8858;-62
2022/03/03 00:07:53;;;;;;;;;12.20;11.20;;;;;0.71;56.90;100354.47;5115660;28;8921;-63
2022/03/03 00:10:21;;;;;;;;;7.40;6.40;;;;;0.69;56.77;100355.47;5114916;28;8826;-63
2022/03/03 00:12:49;;;;;;;;;4.40;4.00;;;;;0.66;57.16;100348.56;5110017;28;8826;-63
2022/03/03 00:15:16;;;;;;;;;4.40;4.40;;;;;0.63;56.93;100353.88;5108052;28;8818;-63
2022/03/03 00:17:44;;;;;;;;;10.20;9.00;;;;;0.57;56.72;100354.09;5106905;28;8802;-62
2022/03/03 00:20:12;;;;;;;;;7.00;6.60;;;;;0.52;57.50;100350.78;5095114;28;8825;-63
2022/03/03 00:22:40;;;;;;;;;5.60;5.60;;;;;0.47;57.43;100355.28;5094957;28;8896;-62
2022/03/03 00:25:08;;;;;;;;;5.20;4.60;;;;;0.43;57.68;100358.06;5108192;28;8824;-62
2022/03/03 00:27:35;;;;;;;;;5.80;4.40;;;;;0.43;57.79;100361.56;5115130;28;8852;-62
2022/03/03 00:30:03;;;;;;;;;4.40;3.40;;;;;0.40;57.79;100351.16;5114294;28;8827;-62
2022/03/03 00:32:31;;;;;;;;;7.80;7.40;;;;;0.38;57.54;100347.75;5094653;28;8830;-63
2022/03/03 00:34:59;;;;;;;;;4.00;3.00;;;;;0.36;57.78;100353.94;5097645;28;8822;-62
2022/03/03 00:37:27;;;;;;;;;7.20;7.20;;;;;0.37;57.78;100346.03;5094495;28;8826;-65
2022/03/03 00:39:55;;;;;;;;;9.60;9.00;;;;;0.37;57.21;100353.88;5094557;28;8891;-62
2022/03/03 00:42:22;;;;;;;;;7.40;7.00;;;;;0.37;57.76;100358.25;5094805;28;8822;-63
2022/03/03 00:44:50;;;;;;;;;6.20;6.20;;;;;0.37;57.84;100350.41;5108812;28;8815;-63
2022/03/03 00:47:18;;;;;;;;;6.20;6.00;;;;;0.35;57.58;100366.19;5115408;28;8808;-62
2022/03/03 00:49:46;;;;;;;;;6.40;6.40;;;;;0.33;58.03;100365.34;5101155;28;8923;-63
2022/03/03 00:52:14;;;;;;;;;6.40;6.00;;;;;0.30;57.93;100360.22;5114020;28;8838;-63
2022/03/03 00:54:41;;;;;;;;;1.00;1.00;;;;;0.27;57.68;100368.19;5113981;28;8830;-62
2022/03/03 00:57:09;;;;;;;;;11.60;11.20;;;;;0.25;57.49;100362.13;5095762;28;8833;-62
2022/03/03 00:59:37;;;;;;;;;10.00;10.00;;;;;0.25;57.90;100366.53;5108937;28;8835;-62
2022/03/03 01:02:04;;;;;;;;;7.60;6.80;;;;;0.25;58.31;100369.97;5098664;28;8842;-62
2022/03/03 01:04:33;;;;;;;;;6.60;6.60;;;;;0.24;58.48;100355.19;5093756;28;8952;-62
2022/03/03 01:07:00;;;;;;;;;8.60;8.20;;;;;0.24;57.68;100352.56;5093812;28;8884;-63
2022/03/03 01:09:29;;;;;;;;;10.00;9.40;;;;;0.23;58.06;100347.41;5101645;28;8970;-62
2022/03/03 01:11:57;;;;;;;;;5.20;4.40;;;;;0.20;58.39;100342.22;5115613;28;8862;-63
2022/03/03 01:14:25;;;;;;;;;10.00;9.40;;;;;0.16;58.39;100346.72;5115051;28;8958;-63
2022/03/03 01:16:53;;;;;;;;;7.80;7.80;;;;;0.11;58.57;100342.53;5113479;28;8816;-63
2022/03/03 01:19:21;;;;;;;;;4.80;3.40;;;;;0.08;58.36;100343.47;5104333;28;8842;-63
2022/03/03 01:21:49;;;;;;;;;0.60;0.00;;;;;0.06;58.07;100352.28;5094956;28;8852;-63
2022/03/03 01:24:16;;;;;;;;;7.00;6.20;;;;;0.04;57.79;100346.25;5113259;28;8986;-63
2022/03/03 01:26:44;;;;;;;;;7.00;7.00;;;;;0.02;57.90;100348.06;5115660;28;8842;-63
2022/03/03 01:29:12;;;;;;;;;5.60;5.20;;;;;0.01;58.47;100349.81;5105688;28;8826;-63
2022/03/03 01:31:40;;;;;;;;;5.20;4.80;;;;;-0.01;58.83;100343.75;5094633;28;8826;-63
2022/03/03 01:34:07;;;;;;;;;4.40;4.40;;;;;-0.02;58.67;100342.06;5093779;28;8927;-63
2022/03/03 01:36:35;;;;;;;;;8.60;6.80;;;;;-0.02;58.37;100342.06;5098125;28;8842;-63
2022/03/03 01:39:03;;;;;;;;;4.80;4.80;;;;;-0.03;58.44;100339.47;5105934;28;8810;-63
2022/03/03 01:41:31;;;;;;;;;9.20;7.00;;;;;-0.06;58.78;100336.97;5094914;28;8830;-63
2022/03/03 01:43:58;;;;;;;;;6.80;6.60;;;;;-0.09;58.66;100341.44;5094392;28;8822;-63
2022/03/03 01:46:26;;;;;;;;;6.00;4.80;;;;;-0.15;58.56;100339.00;5094833;28;8849;-63
2022/03/03 01:48:54;;;;;;;;;5.00;5.00;;;;;-0.20;59.02;100343.50;5101118;28;8832;-63
2022/03/03 01:51:22;;;;;;;;;6.00;4.80;;;;;-0.27;58.34;100339.34;5113026;28;8856;-64
2022/03/03 01:53:50;;;;;;;;;4.40;4.40;;;;;-0.32;58.77;100341.28;5115004;28;8931;-63
2022/03/03 01:56:19;;;;;;;;;4.40;4.40;;;;;-0.35;58.83;100341.34;5096663;28;8840;-63
2022/03/03 01:58:47;;;;;;;;;3.60;3.60;;;;;-0.39;59.39;100342.34;5096094;28;8880;-63
2022/03/03 02:01:15;;;;;;;;;1.40;1.00;;;;;-0.41;59.41;100341.50;5094188;28;8952;-63
2022/03/03 02:03:43;;;;;;;;;4.80;4.80;;;;;-0.43;58.91;100330.25;5094715;28;8826;-64
2022/03/03 02:06:11;;;;;;;;;8.20;6.00;;;;;-0.43;59.48;100333.72;5095003;28;8854;-63
2022/03/03 02:08:41;;;;;;;;;3.60;3.60;;;;;-0.40;59.48;100338.03;5093519;28;8856;-63
2022/03/03 02:11:09;;;;;;;;;8.00;6.60;;;;;-0.40;59.30;100328.41;5093868;28;8841;-63
2022/03/03 02:13:37;;;;;;;;;9.60;9.00;;;;;-0.40;59.58;100340.63;5093912;28;8874;-63
2022/03/03 02:16:04;;;;;;;;;6.40;6.00;;;;;-0.41;58.87;100323.19;5094088;28;8840;-64
2022/03/03 02:18:32;;;;;;;;;6.00;6.00;;;;;-0.42;59.07;100329.34;5094253;28;8966;-63
2022/03/03 02:21:00;;;;;;;;;4.40;4.00;;;;;-0.46;59.33;100331.19;5094866;28;8835;-63
2022/03/03 02:23:28;;;;;;;;;8.00;7.80;;;;;-0.49;59.04;100325.19;5098529;28;9485;-63
2022/03/03 02:25:56;;;;;;;;;7.40;6.60;;;;;-0.50;59.75;100324.34;5114934;28;8824;-63
2022/03/03 02:28:24;;;;;;;;;7.00;6.00;;;;;-0.53;59.34;100316.56;5114981;28;8827;-63
2022/03/03 02:30:52;;;;;;;;;6.00;3.40;;;;;-0.58;59.50;100322.84;5113665;28;8855;-63
2022/03/03 02:33:19;;;;;;;;;6.80;6.20;;;;;-0.62;59.72;100327.31;5113467;28;9493;-63
2022/03/03 02:35:47;;;;;;;;;4.40;3.60;;;;;-0.60;59.55;100319.44;5114439;28;8859;-63
2022/03/03 02:38:15;;;;;;;;;7.40;7.00;;;;;-0.61;59.36;100320.34;5115054;28;8819;-63
2022/03/03 02:40:43;;;;;;;;;7.40;7.00;;;;;-0.63;59.30;100317.75;5115045;28;8820;-63
2022/03/03 02:43:10;;;;;;;;;4.80;3.60;;;;;-0.61;59.75;100302.88;5115277;28;8854;-64
2022/03/03 02:45:38;;;;;;;;;7.00;6.00;;;;;-0.58;60.03;100304.53;5115196;28;8855;-63
2022/03/03 02:48:07;;;;;;;;;3.60;3.60;;;;;-0.60;59.57;100298.50;5114705;28;8828;-63
2022/03/03 02:50:35;;;;;;;;;4.40;4.40;;;;;-0.56;59.57;100307.97;5099823;28;8818;-63
2022/03/03 02:53:02;;;;;;;;;6.20;4.60;;;;;-0.52;59.75;100305.25;5094404;28;8874;-63
2022/03/03 02:55:30;;;;;;;;;2.60;2.60;;;;;-0.52;59.63;100301.75;5094485;28;8826;-64
2022/03/03 02:57:58;;;;;;;;;1.40;1.40;;;;;-0.53;59.62;100305.28;5094686;28;8869;-63
2022/03/03 03:00:26;;;;;;;;;4.00;3.80;;;;;-0.56;59.32;100306.22;5094597;28;8830;-63
2022/03/03 03:02:54;;;;;;;;;7.80;6.80;;;;;-0.61;59.53;100300.25;5093760;28;8955;-63
2022/03/03 03:05:22;;;;;;;;;7.20;7.20;;;;;-0.64;59.74;100286.41;5094473;28;9549;-63
2022/03/03 03:07:49;;;;;;;;;7.60;6.60;;;;;-0.66;59.91;100289.09;5098159;28;8838;-63
2022/03/03 03:10:17;;;;;;;;;6.60;6.60;;;;;-0.68;59.88;100290.03;5098278;28;8868;-63
2022/03/03 03:12:45;;;;;;;;;5.20;4.40;;;;;-0.71;59.95;100290.97;5097910;28;8849;-63
2022/03/03 03:15:13;;;;;;;;;6.20;6.00;;;;;-0.73;60.17;100292.78;5098215;28;8834;-64
2022/03/03 03:17:40;;;;;;;;;10.00;9.20;;;;;-0.76;59.74;100281.56;5097779;28;9713;-63
2022/03/03 03:20:08;;;;;;;;;9.40;7.00;;;;;-0.79;60.37;100287.72;5098094;28;8859;-64
2022/03/03 03:22:36;;;;;;;;;7.00;6.80;;;;;-0.80;60.28;100286.03;5097266;28;8842;-63
2022/03/03 03:25:04;;;;;;;;;7.00;7.00;;;;;-0.81;60.33;100286.94;5097756;28;8858;-64
2022/03/03 03:27:32;;;;;;;;;7.00;6.80;;;;;-0.82;60.34;100276.50;5098088;28;8830;-63
2022/03/03 03:30:00;;;;;;;;;5.60;3.80;;;;;-0.83;59.96;100267.78;5096454;28;8851;-64
2022/03/03 03:32:27;;;;;;;;;6.40;6.40;;;;;-0.83;60.05;100272.19;5097950;28;8838;-64
2022/03/03 03:34:55;;;;;;;;;6.80;6.80;;;;;-0.86;60.04;100274.91;5097488;28;8830;-63
2022/03/03 03:37:23;;;;;;;;;7.00;6.60;;;;;-0.90;60.27;100273.25;5097447;28;8837;-63
2022/03/03 03:39:52;;;;;;;;;11.60;8.20;;;;;-0.90;60.70;100274.13;5097053;28;8965;-62
2022/03/03 03:42:19;;;;;;;;;10.40;9.80;;;;;-0.90;60.17;100270.63;5097006;28;8821;-63
2022/03/03 03:44:47;;;;;;;;;1.80;1.00;;;;;-0.91;60.54;100267.16;5096130;28;8868;-63
2022/03/03 03:47:15;;;;;;;;;8.60;7.60;;;;;-0.91;60.51;100267.16;5097129;28;8826;-64
2022/03/03 03:49:43;;;;;;;;;8.60;6.80;;;;;-0.91;60.41;100261.94;5096703;28;8842;-63
2022/03/03 03:52:10;;;;;;;;;1.80;1.00;;;;;-0.94;60.02;100269.00;5097096;28;9529;-63
2022/03/03 03:54:38;;;;;;;;;9.20;8.20;;;;;-0.92;60.39;100260.22;5096682;28;8855;-63
2022/03/03 03:57:06;;;;;;;;;6.00;6.00;;;;;-0.92;60.76;100270.69;5097415;28;8842;-63
2022/03/03 03:59:34;;;;;;;;;4.80;4.00;;;;;-0.92;60.45;100267.22;5096113;28;8871;-64
2022/03/03 04:02:01;;;;;;;;;8.60;7.00;;;;;-0.96;60.43;100265.59;5096210;28;8848;-62
2022/03/03 04:04:29;;;;;;;;;6.80;4.40;;;;;-1.01;60.42;100264.88;5096635;28;8836;-64
2022/03/03 04:06:57;;;;;;;;;6.00;6.00;;;;;-1.07;60.62;100263.28;5096798;28;8905;-63
2022/03/03 04:09:25;;;;;;;;;3.80;3.80;;;;;-1.12;61.00;100266.91;5096368;28;8840;-63
2022/03/03 04:11:52;;;;;;;;;3.80;3.80;;;;;-1.19;60.80;100268.84;5096653;28;8847;-63
2022/03/03 04:14:20;;;;;;;;;5.60;5.60;;;;;-1.24;60.95;100275.06;5096791;28;8938;-63
2022/03/03 04:16:48;;;;;;;;;6.80;4.40;;;;;-1.27;61.43;100272.56;5096258;28;8839;-64
2022/03/03 04:19:16;;;;;;;;;1.00;1.00;;;;;-1.30;61.27;100270.03;5096535;28;8831;-62
2022/03/03 04:21:43;;;;;;;;;8.60;7.00;;;;;-1.34;61.52;100266.66;5095724;28;8894;-63
2022/03/03 04:24:11;;;;;;;;;8.20;7.40;;;;;-1.34;61.42;100265.78;5104396;28;8975;-63
2022/03/03 04:26:39;;;;;;;;;5.20;4.80;;;;;-1.33;61.23;100262.25;5115217;28;8848;-63
2022/03/03 04:29:07;;;;;;;;;9.40;8.60;;;;;-1.34;61.29;100258.81;5116366;28;8852;-63
2022/03/03 04:31:35;;;;;;;;;6.80;6.00;;;;;-1.33;61.25;100252.69;5116489;28;9551;-64
2022/03/03 04:34:02;;;;;;;;;3.80;2.60;;;;;-1.28;62.14;100255.19;5116715;28;8855;-63
2022/03/03 04:36:30;;;;;;;;;8.20;7.00;;;;;-1.24;61.62;100256.78;5116460;28;8924;-63
2022/03/03 04:38:58;;;;;;;;;4.60;3.80;;;;;-1.23;61.73;100261.16;5115496;28;8828;-63
2022/03/03 04:41:26;;;;;;;;;6.80;6.80;;;;;-1.21;61.51;100256.72;5115079;28;8844;-63
2022/03/03 04:43:53;;;;;;;;;8.80;6.80;;;;;-1.22;61.05;100252.41;5116078;28;8836;-63
2022/03/03 04:46:21;;;;;;;;;4.00;3.80;;;;;-1.20;61.74;100253.22;5116765;28;8812;-63
2022/03/03 04:48:49;;;;;;;;;2.20;2.20;;;;;-1.21;61.59;100238.44;5116214;28;8965;-63
2022/03/03 04:51:17;;;;;;;;;4.00;4.00;;;;;-1.18;61.50;100240.97;5075600;28;8878;-63
2022/03/03 04:53:44;;;;;;;;;6.00;6.00;;;;;-1.17;61.40;100240.94;5074433;28;8870;-63
2022/03/03 04:56:12;;;;;;;;;6.60;6.00;;;;;-1.17;61.11;100237.44;5074100;28;9513;-63
2022/03/03 04:58:42;;;;;;;;;3.40;3.40;;;;;-1.18;61.30;100239.22;5075504;28;8949;-66
2022/03/03 05:01:09;;;;;;;;;0.00;0.00;;;;;-1.21;61.43;100236.66;5075090;28;8847;-63
2022/03/03 05:03:37;;;;;;;;;6.60;6.60;;;;;-1.23;61.57;100242.84;5074563;28;8855;-63
2022/03/03 05:06:05;;;;;;;;;7.00;6.60;;;;;-1.29;61.82;100235.19;5075198;28;8843;-63
2022/03/03 05:08:33;;;;;;;;;6.80;6.00;;;;;-1.33;61.23;100233.53;5074976;28;8924;-63
2022/03/03 05:11:00;;;;;;;;;10.20;8.00;;;;;-1.36;61.66;100244.91;5074952;28;8836;-62
2022/03/03 05:13:29;;;;;;;;;2.20;2.20;;;;;-1.39;61.68;100245.00;5074460;28;9557;-64
2022/03/03 05:15:58;;;;;;;;;6.20;6.00;;;;;-1.41;61.83;100249.44;5074791;28;8828;-63
2022/03/03 05:18:25;;;;;;;;;6.40;6.40;;;;;-1.43;61.75;100245.13;5074466;28;8844;-64
2022/03/03 05:20:53;;;;;;;;;6.40;6.40;;;;;-1.44;61.56;100239.06;5075225;28;8836;-63
2022/03/03 05:23:23;;;;;;;;;8.60;7.00;;;;;-1.43;61.34;100235.56;5074243;28;8971;-63
2022/03/03 05:25:50;;;;;;;;;5.20;5.20;;;;;-1.43;61.51;100234.69;5075017;28;8854;-63
2022/03/03 05:28:18;;;;;;;;;8.60;7.00;;;;;-1.42;61.81;100234.66;5074263;28;8844;-63
2022/03/03 05:30:46;;;;;;;;;9.00;8.60;;;;;-1.43;61.82;100234.69;5074795;28;8820;-63
2022/03/03 05:33:14;;;;;;;;;7.00;6.00;;;;;-1.45;61.60;100226.06;5075005;28;8832;-63
2022/03/03 05:35:41;;;;;;;;;6.00;6.00;;;;;-1.45;61.75;100220.84;5074687;28;8852;-64
2022/03/03 05:38:10;;;;;;;;;6.60;6.40;;;;;-1.45;61.29;100223.44;5074298;28;8851;-63
2022/03/03 05:40:37;;;;;;;;;9.00;7.00;;;;;-1.44;61.45;100222.56;5074176;28;8970;-63
2022/03/03 05:43:05;;;;;;;;;6.00;4.80;;;;;-1.42;61.80;100226.84;5073720;28;8975;-63
2022/03/03 05:45:40;;;;;;;;;6.20;4.40;;;;;-1.41;62.02;100225.94;5074837;28;8974;-63
2022/03/03 05:48:09;;;;;;;;;0.00;0.00;;;;;-1.40;61.49;100230.25;5073831;28;9553;-64
2022/03/03 05:50:37;;;;;;;;;5.60;5.60;;;;;-1.38;61.41;100227.63;5088027;28;8868;-63
2022/03/03 05:53:05;;;;;;;;;6.60;5.20;;;;;-1.36;61.84;100220.59;5093480;28;8860;-63
2022/03/03 05:55:33;;;;;;;;;8.60;5.60;;;;;-1.36;61.71;100216.19;5093391;28;8848;-67
2022/03/03 05:58:00;;;;;;;;;4.00;4.00;;;;;-1.37;61.43;100219.72;5092574;28;8842;-63
2022/03/03 06:00:30;;;;;;;;;6.00;6.00;;;;;-1.37;61.00;100208.44;5095033;28;8963;-63
2022/03/03 06:02:58;;;;;;;;;6.00;6.00;;;;;-1.38;61.18;100214.56;5105982;28;8831;-64
2022/03/03 06:05:25;;;;;;;;;6.00;4.00;;;;;-1.36;61.80;100217.97;5113458;28;8828;-64
2022/03/03 06:07:53;;;;;;;;;3.80;3.60;;;;;-1.38;61.50;100218.00;5113715;28;8862;-63
2022/03/03 06:10:22;;;;;;;;;5.00;3.40;;;;;-1.39;61.73;100211.06;5112898;28;8835;-64
2022/03/03 06:12:51;;;;;;;;;3.00;3.00;;;;;-1.41;61.98;100205.03;5113579;28;8986;-64
2022/03/03 06:15:19;;;;;;;;;5.20;4.00;;;;;-1.40;61.85;100209.38;5113098;28;9656;-63
2022/03/03 06:17:46;;;;;;;;;4.00;3.00;;;;;-1.40;61.58;100208.50;5113586;28;8850;-64
2022/03/03 06:20:14;;;;;;;;;3.40;3.40;;;;;-1.38;61.41;100207.56;5113404;28;8839;-63
2022/03/03 06:22:43;;;;;;;;;10.00;8.40;;;;;-1.38;61.38;100204.94;5112512;28;8850;-63
2022/03/03 06:25:11;;;;;;;;;2.20;1.00;;;;;-1.36;61.61;100200.53;5113086;28;8985;-63
2022/03/03 06:27:39;;;;;;;;;7.00;6.80;;;;;-1.33;61.28;100212.66;5113480;28;8959;-63
2022/03/03 06:30:07;;;;;;;;;6.60;5.00;;;;;-1.29;61.59;100201.25;5113237;28;8836;-63
2022/03/03 06:32:34;;;;;;;;;2.20;1.40;;;;;-1.28;61.45;100203.81;5111696;28;8840;-63
2022/03/03 06:35:03;;;;;;;;;5.00;5.00;;;;;-1.28;61.48;100208.16;5111423;28;8846;-63
2022/03/03 06:37:30;;;;;;;;;4.40;3.20;;;;;-1.28;61.51;100214.25;5111031;28;9255;-63
2022/03/03 06:39:59;;;;;;;;;6.80;6.00;;;;;-1.25;61.39;100213.28;5111696;28;8824;-63
2022/03/03 06:42:27;;;;;;;;;4.80;4.00;;;;;-1.23;61.46;100206.28;5115710;28;8826;-63
2022/03/03 06:44:55;;;;;;;;;1.00;0.00;;;;;-1.21;61.18;100214.94;5114423;28;10002;-65
2022/03/03 06:47:22;;;;;;;;;3.00;3.00;;;;;-1.20;61.57;100206.19;5116064;28;8854;-63
2022/03/03 06:49:51;;;;;;;;;7.00;6.00;;;;;-1.18;60.87;100205.25;5116075;28;8840;-63
2022/03/03 06:52:19;;;;;;;;;5.60;5.60;;;;;-1.16;61.79;100211.28;5115349;28;9006;-63
2022/03/03 06:54:47;;;;;;;;;4.80;4.80;;;;;-1.14;60.93;100211.25;5115176;28;8838;-63
2022/03/03 06:57:14;;;;;;;;;1.00;1.00;;;;;-1.14;61.07;100212.09;5115541;28;8839;-64
2022/03/03 06:59:43;;;;;;;;;6.40;6.20;;;;;-1.10;61.40;100212.84;5113749;28;8989;-63
2022/03/03 07:02:10;;;;;;;;;6.00;6.00;;;;;-1.07;61.35;100218.03;5112564;28;8851;-64
2022/03/03 07:04:38;;;;;;;;;5.60;4.00;;;;;-1.03;61.55;100219.63;5112132;28;8839;-63
2022/03/03 07:07:06;;;;;;;;;4.40;4.40;;;;;-0.99;60.95;100216.88;5112783;28;8919;-64
2022/03/03 07:09:34;;;;;;;;;8.20;8.20;;;;;-0.94;60.84;100221.97;5112964;28;8844;-64
2022/03/03 07:12:02;;;;;;;;;4.60;4.00;;;;;-0.87;60.95;100220.88;5112488;28;8831;-64
2022/03/03 07:14:30;;;;;;;;;8.60;6.80;;;;;-0.79;61.09;100229.34;5113163;28;8995;-63
2022/03/03 07:16:57;;;;;;;;;8.40;8.40;;;;;-0.70;60.87;100223.88;5113512;28;8874;-64
2022/03/03 07:19:25;;;;;;;;;7.80;7.20;;;;;-0.62;60.60;100225.34;5113550;28;8828;-64
2022/03/03 07:21:53;;;;;;;;;4.40;4.40;;;;;-0.53;60.71;100222.44;5113717;28;8864;-64
2022/03/03 07:24:21;;;;;;;;;6.20;6.00;;;;;-0.45;60.54;100223.09;5112525;28;8855;-64
2022/03/03 07:26:49;;;;;;;;;8.60;8.60;;;;;-0.34;59.84;100218.38;5114629;28;9493;-66
2022/03/03 07:29:17;;;;;;;;;8.80;6.80;;;;;-0.23;59.94;100221.50;5114953;28;8966;-64
2022/03/03 07:31:45;;;;;;;;;6.80;6.00;;;;;-0.08;59.65;100225.41;5114635;28;8854;-64
2022/03/03 07:34:13;;;;;;;;;7.00;7.00;;;;;0.09;59.66;100221.31;5114377;28;9533;-64
2022/03/03 07:36:42;;;;;;;;;3.40;3.20;;;;;0.27;59.48;100213.72;5114982;28;9021;-65
2022/03/03 07:39:10;;;;;;;;;10.60;9.40;;;;;0.52;59.54;100213.69;5114565;28;8882;-64
2022/03/03 07:41:38;;;;;;;;;5.60;5.60;;;;;0.81;58.93;100219.63;5115106;28;8846;-63
2022/03/03 07:44:06;;;;;;;;;6.20;6.00;;;;;1.13;58.81;100218.47;5114241;28;8828;-64
2022/03/03 07:46:33;;;;;;;;;3.20;2.00;;;;;1.43;58.15;100214.66;5113886;28;8919;-64
2022/03/03 07:49:01;;;;;;;;;9.00;9.00;;;;;1.63;58.00;100209.50;5112881;28;9523;-63
2022/03/03 07:51:29;;;;;;;;;9.40;9.00;;;;;1.73;57.92;100227.47;5113536;28;8940;-63
2022/03/03 07:53:57;;;;;;;;;15.00;12.40;;;;;1.80;57.59;100218.44;5112564;28;9505;-64
2022/03/03 07:56:26;;;;;;;;;6.20;5.20;;;;;2.04;57.86;100222.69;5114263;28;8828;-63
2022/03/03 07:58:54;;;;;;;;;7.40;7.00;;;;;2.41;57.32;100222.88;5114087;28;8835;-64
2022/03/03 08:01:21;;;;;;;;;6.80;6.60;;;;;2.83;57.00;100215.78;5112498;28;8828;-64
2022/03/03 08:03:49;;;;;;;;;11.60;10.00;;;;;3.20;56.54;100207.06;5111466;28;8920;-64
2022/03/03 08:06:17;;;;;;;;;9.20;8.60;;;;;3.46;56.63;100202.31;5112331;28;8832;-63
2022/03/03 08:08:45;;;;;;;;;11.80;10.80;;;;;3.69;56.61;100204.72;5110652;28;8843;-64
2022/03/03 08:11:13;;;;;;;;;9.40;8.60;;;;;3.84;55.94;100198.72;5112955;28;8970;-64
2022/03/03 08:13:40;;;;;;;;;7.00;6.40;;;;;4.00;56.12;100199.69;5113067;28;8835;-64
2022/03/03 08:16:08;;;;;;;;;9.40;9.40;;;;;4.19;55.90;100201.31;5113195;28;8828;-64
2022/03/03 08:18:38;;;;;;;;;10.40;10.40;;;;;4.50;55.69;100208.56;5113036;28;8974;-64
2022/03/03 08:21:06;;;;;;;;;11.80;10.80;;;;;4.81;55.12;100203.41;5111718;28;8850;-64
2022/03/03 08:23:34;;;;;;;;;6.00;3.40;;;;;4.97;55.33;100197.25;5111457;28;9191;-65
2022/03/03 08:26:02;;;;;;;;;12.00;11.60;;;;;5.08;54.61;100199.34;5113433;28;8863;-65
2022/03/03 08:28:31;;;;;;;;;9.20;6.60;;;;;5.15;54.19;100195.41;5113475;28;8888;-64
2022/03/03 08:30:59;;;;;;;;;8.20;7.00;;;;;5.14;54.68;100186.66;5113501;28;8823;-64
2022/03/03 08:33:27;;;;;;;;;12.20;11.20;;;;;5.09;54.62;100186.03;5112833;28;8932;-64
2022/03/03 08:35:55;;;;;;;;;13.20;11.40;;;;;5.04;54.46;100187.22;5110661;28;8840;-64
2022/03/03 08:38:23;;;;;;;;;10.80;10.00;;;;;5.02;54.35;100183.81;5110286;28;8844;-64
2022/03/03 08:40:51;;;;;;;;;13.40;12.20;;;;;5.10;54.57;100181.63;5108976;28;8847;-64
2022/03/03 08:43:20;;;;;;;;;13.40;11.20;;;;;5.32;53.86;100183.00;5109028;28;8842;-64
2022/03/03 08:45:48;;;;;;;;;9.20;7.20;;;;;5.64;53.24;100184.75;5109003;28;8836;-64
2022/03/03 08:48:16;;;;;;;;;5.60;4.40;;;;;5.99;52.94;100191.53;5109728;28;8878;-64
2022/03/03 08:50:44;;;;;;;;;17.60;14.60;;;;;6.26;52.33;100178.53;5108904;28;9190;-64
2022/03/03 08:53:12;;;;;;;;;13.00;12.00;;;;;6.53;51.96;100182.22;5109294;28;8827;-65
2022/03/03 08:55:39;;;;;;;;;4.00;3.60;;;;;6.81;52.40;100179.63;5109005;28;8832;-64
2022/03/03 08:58:08;;;;;;;;;13.40;11.60;;;;;7.16;51.65;100165.06;5111306;28;8854;-64
2022/03/03 09:00:36;;;;;;;;;12.60;12.00;;;;;7.51;51.05;100171.66;5109974;28;9009;-64
2022/03/03 09:03:03;;;;;;;;;15.60;15.00;;;;;7.93;50.42;100164.44;5110461;28;8823;-65
2022/03/03 09:05:32;;;;;;;;;20.40;15.20;;;;;8.32;49.95;100162.69;5111099;28;8839;-64
2022/03/03 09:08:00;;;;;;;;;18.60;18.40;;;;;8.48;49.57;100163.34;5110940;28;8956;-64
2022/03/03 09:10:27;;;;;;;;;12.20;12.00;;;;;8.49;49.97;100166.84;5110631;28;8850;-64
2022/03/03 09:12:55;;;;;;;;;11.60;10.40;;;;;8.40;50.13;100163.03;5113114;28;8843;-64
2022/03/03 09:15:23;;;;;;;;;15.40;13.00;;;;;8.27;50.35;100164.78;5112375;28;9179;-64
2022/03/03 09:17:51;;;;;;;;;11.80;9.60;;;;;8.14;50.15;100155.91;5112516;28;8857;-64
2022/03/03 09:20:19;;;;;;;;;2.60;1.00;;;;;8.03;50.66;100153.13;5113148;28;9024;-64
2022/03/03 09:22:52;;;;;;;;;11.20;10.00;;;;;7.95;50.85;100155.44;5112000;28;9227;-64
2022/03/03 09:25:20;;;;;;;;;18.60;15.60;;;;;7.95;50.63;100155.44;5112427;28;8844;-64
2022/03/03 09:27:48;;;;;;;;;13.40;12.40;;;;;7.99;50.44;100156.91;5112020;28;8967;-64
2022/03/03 09:30:15;;;;;;;;;13.00;12.00;;;;;8.02;50.60;100154.09;5112513;28;8854;-64
2022/03/03 09:32:43;;;;;;;;;14.20;14.20;;;;;8.01;50.83;100155.03;5113120;28;8840;-64
2022/03/03 09:35:11;;;;;;;;;10.80;10.00;;;;;8.00;51.36;100147.16;5111662;28;8858;-64
2022/03/03 09:37:39;;;;;;;;;11.20;10.00;;;;;7.99;51.09;100145.47;5112135;28;8850;-64
2022/03/03 09:40:07;;;;;;;;;10.40;7.40;;;;;7.99;51.36;100154.25;5111406;28;8843;-64
2022/03/03 09:42:35;;;;;;;;;12.00;11.20;;;;;8.00;51.02;100145.34;5111402;28;8835;-64
2022/03/03 09:45:02;;;;;;;;;14.80;12.40;;;;;8.05;50.89;100147.72;5110949;28;9005;-64
2022/03/03 09:47:30;;;;;;;;;16.00;12.60;;;;;8.08;51.16;100148.38;5111403;28;8854;-64
2022/03/03 09:49:58;;;;;;;;;9.00;7.00;;;;;8.12;50.90;100141.91;5111437;28;9007;-65
2022/03/03 09:52:26;;;;;;;;;18.20;15.00;;;;;8.19;50.82;100152.97;5111969;28;8860;-64
2022/03/03 09:54:55;;;;;;;;;18.40;16.00;;;;;8.28;50.75;100142.59;5111605;28;8851;-64
2022/03/03 09:57:24;;;;;;;;;18.80;16.00;;;;;8.40;50.25;100139.16;5111635;28;8835;-64
2022/03/03 09:59:52;;;;;;;;;13.00;13.00;;;;;8.61;49.98;100140.34;5111747;28;8831;-64
2022/03/03 10:02:20;;;;;;;;;12.00;11.60;;;;;8.83;49.51;100142.34;5110377;28;8839;-64
2022/03/03 10:04:48;;;;;;;;;12.20;10.60;;;;;9.04;49.34;100138.22;5110528;28;8867;-64
2022/03/03 10:07:16;;;;;;;;;13.60;12.80;;;;;9.28;48.89;100134.66;5111482;28;9543;-64
2022/03/03 10:10:07;;;;;;;;;11.60;11.60;;;;;9.65;48.69;100135.53;5111610;28;8836;-67
2022/03/03 10:12:35;;;;;;;;;9.40;8.00;;;;;10.17;47.48;100112.97;5111090;28;8882;-64
2022/03/03 10:15:03;;;;;;;;;12.80;10.00;;;;;10.84;46.32;100104.16;5111687;28;8978;-64
2022/03/03 10:17:31;;;;;;;;;10.00;7.00;;;;;11.74;45.21;100102.19;5116513;28;8839;-64
2022/03/03 10:20:02;;;;;;;;;13.00;10.50;;;;;12.92;43.42;100094.63;5115320;28;9574;-64
2022/03/03 10:22:31;;;;;;;;;14.50;12.00;;;;;14.15;41.52;100093.31;5116348;28;8970;-64
2022/03/03 10:24:58;;;;;;;;;9.50;9.50;;;;;15.22;40.66;100089.31;5115052;28;8836;-65
2022/03/03 10:27:26;;;;;;;;;13.75;12.00;;;;;16.25;39.77;100082.44;5115484;28;8854;-65
2022/03/03 10:29:54;;;;;;;;;7.00;6.50;;;;;17.23;38.31;100088.41;5115282;28;8830;-64
2022/03/03 10:32:22;;;;;;;;;13.00;11.00;;;;;18.10;37.36;100079.81;5114376;28;8816;-64
2022/03/03 10:34:53;;;;;;;;;12.00;10.00;;;;;18.83;37.07;100080.69;5112846;28;8981;-65
2022/03/03 10:37:22;;;;;;;;;15.00;14.50;;;;;19.50;36.47;100072.91;5113984;28;8836;-64
2022/03/03 10:39:50;;;;;;;;;16.00;15.75;;;;;20.19;35.73;100074.75;5113928;28;8831;-64
2022/03/03 10:42:18;;;;;;;;;15.25;15.25;;;;;20.73;35.44;100074.47;5114838;28;8832;-64
2022/03/03 10:44:45;;;;;;;;;17.60;16.00;;;;;21.31;34.94;100066.41;5114819;28;8839;-64
2022/03/03 10:47:14;;;;;;;;;12.40;9.20;;;;;21.58;34.28;100058.47;5114609;28;8828;-62
2022/03/03 10:49:41;;;;;;;;;19.60;18.00;;;;;21.83;34.24;100070.69;5115151;28;8824;-62
2022/03/03 10:52:09;;;;;;;;;18.80;18.20;;;;;21.98;33.95;100067.94;5112635;28;8844;-62
2022/03/03 10:54:36;;;;;;;;;17.80;15.80;;;;;22.26;33.94;100066.16;5111889;28;9140;-62
2022/03/03 10:57:07;;;;;;;;;19.80;17.00;;;;;22.57;33.41;100074.84;5112489;28;9049;-62
2022/03/03 10:59:35;;;;;;;;;17.60;16.00;;;;;22.74;32.88;100065.38;5111496;28;8843;-65
2022/03/03 11:02:02;;;;;;;;;14.40;13.00;;;;;22.93;33.38;100064.72;5110193;28;8844;-64
2022/03/03 11:04:30;;;;;;;;;13.00;12.80;;;;;23.03;32.63;100066.03;5110650;28;8839;-62
2022/03/03 11:06:58;;;;;;;;;20.00;18.00;;;;;23.09;33.43;100067.97;5112562;28;8848;-62
2022/03/03 11:09:26;;;;;;;;;21.40;20.00;;;;;23.13;33.16;100065.69;5111889;28;8870;-62
2022/03/03 11:11:54;;;;;;;;;20.20;17.00;;;;;23.13;33.18;100065.69;5112171;28;8881;-65
2022/03/03 11:14:22;;;;;;;;;20.60;18.40;;;;;23.16;32.96;100065.31;5113369;28;8931;-64
2022/03/03 11:17:09;;;;;;;;;16.80;16.20;;;;;23.23;32.80;100069.75;5114006;28;8840;-63
2022/03/03 11:19:37;;;;;;;;;20.40;19.80;;;;;23.42;32.66;100068.19;5113029;28;8856;-63
2022/03/03 11:22:05;;;;;;;;;12.00;11.40;;;;;23.24;32.63;100067.88;5105170;28;8840;-63
2022/03/03 11:24:33;;;;;;;;;23.40;18.60;;;;;22.92;33.02;100076.63;5110418;28;8858;-63
2022/03/03 11:27:00;;;;;;;;;17.40;17.00;;;;;22.67;33.40;100078.91;5114107;28;8986;-63
2022/03/03 11:29:29;;;;;;;;;21.00;17.80;;;;;22.69;33.12;100084.97;5114415;28;8904;-63
2022/03/03 11:31:57;;;;;;;;;23.40;17.60;;;;;22.72;33.02;100089.19;5114097;28;8840;-63
2022/03/03 11:34:26;;;;;;;;;14.60;12.80;;;;;22.56;32.71;100086.75;5112561;28;8856;-63